Flight Track Log - Related Links

Times and Time Zones

All times are in EDT time to prevent confusion due to time zone crossing. See the N859JG flight status page for this flight to view local times or setup timezone preferences in your user account.


Time Position Orientation Groundspeed Altitude Reporting Facility
EDT Latitude Longitude Course Direction KTS MPH feet Rate Location/Type
Fri 06:08:57 PM 39.2500 -76.4000 142° Southeast 146 168 2,800  Level Potomac TRACON
Fri 06:09:58 PM 39.2500 -76.3500 90° East 141 162 3,600 595 Climbing Potomac TRACON
Fri 06:10:58 PM 39.2500 -76.2833 90° East 165 190 4,000 200 Climbing Potomac TRACON
Fri 06:11:58 PM 39.2667 -76.2333 67° East 189 217 4,000  Level Potomac TRACON
Fri 06:12:58 PM 39.2667 -76.1500 90° East 194 223 4,000 250 Level Potomac TRACON
Fri 06:13:00 PM 39.4063 -76.1034 70° East  Level FlightAware Approximate
Fri 06:13:58 PM 39.2667 -76.0833 90° East 182 209 4,500  Level Potomac TRACON
Fri 06:15:07 PM 39.2833 -76.0333 67° East 173 199 5,000 256 Climbing Philadelphia TRACON
Fri 06:15:55 PM 39.3167 -76.0000 38° Northeast 172 198 5,000  Level Philadelphia TRACON
Fri 06:16:55 PM 39.3500 -75.9667 38° Northeast 176 203 5,000  Level Philadelphia TRACON
Fri 06:17:49 PM 39.4000 -75.9333 27° Northeast 179 206 5,000  Level Philadelphia TRACON
Fri 06:18:55 PM 39.4333 -75.8833 49° Northeast 178 205 5,000  Level Philadelphia TRACON
Fri 06:19:50 PM 39.4667 -75.8500 38° Northeast 176 203 5,000  Level Philadelphia TRACON
Fri 06:20:56 PM 39.5000 -75.8000 49° Northeast 190 219 5,000  Level Philadelphia TRACON
Fri 06:21:55 PM 39.5167 -75.7333 72° East 186 214 5,000  Level Philadelphia TRACON
Fri 06:22:49 PM 39.5333 -75.6667 72° East 189 217 5,000  Level Philadelphia TRACON
Fri 06:23:49 PM 39.5500 -75.6167 67° East 189 217 5,000  Level Philadelphia TRACON
Fri 06:24:49 PM 39.5667 -75.5500 72° East 186 214 5,000  Level Philadelphia TRACON
Fri 06:25:44 PM 39.5833 -75.4833 72° East 184 212 5,000  Level Philadelphia TRACON
Fri 06:27:01 PM 39.6000 -75.4167 72° East 185 213 5,000  Level Philadelphia TRACON
Fri 06:28:02 PM 39.6333 -75.3500 57° Northeast 185 213 5,000  Level Philadelphia TRACON
Fri 06:28:44 PM 39.6333 -75.3000 90° East 189 217 5,000  Level Philadelphia TRACON
Fri 06:29:56 PM 39.6667 -75.2500 49° Northeast 176 203 5,000  Level Philadelphia TRACON
Fri 06:30:56 PM 39.7167 -75.2000 38° Northeast 177 204 5,000  Level Philadelphia TRACON
Fri 06:31:56 PM 39.7500 -75.1500 49° Northeast 183 211 5,000  Level Philadelphia TRACON
Fri 06:32:56 PM 39.7500 -75.0833 90° East 200 230 5,000  Level Philadelphia TRACON
Fri 06:34:00 PM 39.7555 -75.0235 83° East  Level FlightAware Approximate
Fri 06:41:00 PM 39.7924 -74.6236 81° East  Level FlightAware Approximate
Fri 06:42:00 PM 39.7990 -74.5677 81° East  Level FlightAware Approximate
Fri 06:43:00 PM 39.8055 -74.5119 81° East  Level FlightAware Approximate
Fri 06:44:00 PM 39.8121 -74.4560 81° East  Level FlightAware Approximate
Fri 06:45:00 PM 39.8273 -74.4074 34° Northeast  Level FlightAware Approximate
Fri 06:46:00 PM 39.8633 -74.3759 34° Northeast  Level FlightAware Approximate
Fri 06:47:00 PM 39.8994 -74.3444 34° Northeast  Level FlightAware Approximate
Fri 06:48:00 PM 39.9354 -74.3128 34° Northeast  Level FlightAware Approximate
Fri 06:49:00 PM 39.9705 -74.2795 37° Northeast  Level FlightAware Approximate
Fri 06:50:00 PM 40.0076 -74.2505 27° Northeast  Level FlightAware Approximate
Fri 06:51:00 PM 40.0462 -74.2247 27° Northeast  Level FlightAware Approximate
Fri 06:52:00 PM 40.0847 -74.1986 37° Northeast  Level FlightAware Approximate
Fri 06:53:00 PM 40.1194 -74.1646 30° Northeast  Level FlightAware Approximate
Fri 06:54:00 PM 40.1571 -74.1364 30° Northeast  Level FlightAware Approximate
Fri 06:55:00 PM 40.1833 -74.1167 30° Northeast  Level FlightAware Approximate
Fri 06:56:00 PM 40.1867 -74.1246 30° Northeast  Level Estimated

Login

Don't have an account? Register now (free) for customized features, flight alerts, and more!